Vershire, Vermont
Current Conditions -  °F | °C
As of 5:51 PM on Tuesday 27 Jan 2015 (Local Time) from KMPV Reporting Station
Light Snow Light Snow  
Wind Chill: -13°   Ceiling: 1900
Heat Index:   Visibility: 1.2mi
Dew Point:   Wind: 20mph
Humidity: 73%   Direction: 10°N
Pressure: 29.81"   Gusts: 25mph
Location:  43.97°N, 72.32°W
Report Text: KMPV 272251Z AUTO 01017G22KT 1 1/4SM -SN OVC019 M14/M18 A2981 RMK AO2 SLP121 P0000 T11391178
Loading
Personal Weather Stations






























Interactive Weather Map New forecast layout! Learn more

10-Day Weather Forecast

Advertisements
Track Severe Weather on mobile